sensor_id;sensor_type;location;lat;lon;timestamp;P1;durP1;ratioP1;P2;durP2;ratioP2
9328;SDS011;4703;48.748;19.142;2023-10-31T00:01:44;8.93;;;8.17;;
9328;SDS011;4703;48.748;19.142;2023-10-31T00:04:11;8.20;;;7.40;;
9328;SDS011;4703;48.748;19.142;2023-10-31T00:06:38;7.60;;;6.90;;
9328;SDS011;4703;48.748;19.142;2023-10-31T00:09:05;11.43;;;7.10;;
9328;SDS011;4703;48.748;19.142;2023-10-31T00:11:32;8.10;;;6.80;;
9328;SDS011;4703;48.748;19.142;2023-10-31T00:13:59;7.80;;;6.90;;
9328;SDS011;4703;48.748;19.142;2023-10-31T00:16:26;9.23;;;7.20;;
9328;SDS011;4703;48.748;19.142;2023-10-31T00:18:53;7.40;;;6.70;;
9328;SDS011;4703;48.748;19.142;2023-10-31T00:21:20;7.77;;;6.60;;
9328;SDS011;4703;48.748;19.142;2023-10-31T00:23:48;6.70;;;6.00;;
9328;SDS011;4703;48.748;19.142;2023-10-31T00:26:15;7.20;;;6.30;;
9328;SDS011;4703;48.748;19.142;2023-10-31T00:28:42;7.50;;;6.70;;
9328;SDS011;4703;48.748;19.142;2023-10-31T00:31:09;13.17;;;7.00;;
9328;SDS011;4703;48.748;19.142;2023-10-31T00:33:37;9.40;;;7.83;;
9328;SDS011;4703;48.748;19.142;2023-10-31T00:36:05;8.77;;;6.50;;
9328;SDS011;4703;48.748;19.142;2023-10-31T00:38:33;10.57;;;6.87;;
9328;SDS011;4703;48.748;19.142;2023-10-31T00:41:00;6.70;;;6.07;;
9328;SDS011;4703;48.748;19.142;2023-10-31T00:43:27;7.03;;;6.37;;
9328;SDS011;4703;48.748;19.142;2023-10-31T00:45:54;6.20;;;5.43;;
9328;SDS011;4703;48.748;19.142;2023-10-31T00:48:21;6.60;;;5.90;;
9328;SDS011;4703;48.748;19.142;2023-10-31T00:50:48;8.57;;;5.67;;
9328;SDS011;4703;48.748;19.142;2023-10-31T00:53:15;7.47;;;6.53;;
9328;SDS011;4703;48.748;19.142;2023-10-31T00:55:42;7.00;;;6.30;;
9328;SDS011;4703;48.748;19.142;2023-10-31T00:58:11;6.60;;;5.90;;
9328;SDS011;4703;48.748;19.142;2023-10-31T01:00:38;6.80;;;6.17;;
9328;SDS011;4703;48.748;19.142;2023-10-31T01:03:05;8.00;;;6.40;;
9328;SDS011;4703;48.748;19.142;2023-10-31T01:05:32;5.87;;;5.37;;
9328;SDS011;4703;48.748;19.142;2023-10-31T01:07:59;8.20;;;6.37;;
9328;SDS011;4703;48.748;19.142;2023-10-31T01:10:26;7.67;;;6.43;;
9328;SDS011;4703;48.748;19.142;2023-10-31T01:12:53;9.10;;;5.03;;
9328;SDS011;4703;48.748;19.142;2023-10-31T01:15:20;8.07;;;6.00;;
9328;SDS011;4703;48.748;19.142;2023-10-31T01:17:47;7.53;;;6.73;;
9328;SDS011;4703;48.748;19.142;2023-10-31T01:20:14;6.10;;;5.50;;
9328;SDS011;4703;48.748;19.142;2023-10-31T01:22:41;6.37;;;5.77;;
9328;SDS011;4703;48.748;19.142;2023-10-31T01:25:08;6.70;;;5.40;;
9328;SDS011;4703;48.748;19.142;2023-10-31T01:27:36;6.27;;;5.77;;
9328;SDS011;4703;48.748;19.142;2023-10-31T01:30:03;7.57;;;6.40;;
9328;SDS011;4703;48.748;19.142;2023-10-31T01:32:30;13.50;;;6.30;;
9328;SDS011;4703;48.748;19.142;2023-10-31T01:34:57;9.10;;;6.80;;
9328;SDS011;4703;48.748;19.142;2023-10-31T01:37:24;6.30;;;5.50;;
9328;SDS011;4703;48.748;19.142;2023-10-31T01:39:51;6.73;;;5.93;;
9328;SDS011;4703;48.748;19.142;2023-10-31T01:42:18;7.93;;;5.33;;
9328;SDS011;4703;48.748;19.142;2023-10-31T01:44:45;6.93;;;5.70;;
9328;SDS011;4703;48.748;19.142;2023-10-31T01:47:12;7.40;;;6.57;;
9328;SDS011;4703;48.748;19.142;2023-10-31T01:49:40;7.43;;;6.50;;
9328;SDS011;4703;48.748;19.142;2023-10-31T01:52:07;14.20;;;6.13;;
9328;SDS011;4703;48.748;19.142;2023-10-31T01:54:34;7.90;;;5.97;;
9328;SDS011;4703;48.748;19.142;2023-10-31T01:57:02;6.77;;;6.17;;
9328;SDS011;4703;48.748;19.142;2023-10-31T01:59:31;7.10;;;5.93;;
9328;SDS011;4703;48.748;19.142;2023-10-31T02:01:58;6.33;;;5.67;;
9328;SDS011;4703;48.748;19.142;2023-10-31T02:04:27;7.80;;;6.97;;
9328;SDS011;4703;48.748;19.142;2023-10-31T02:06:54;5.80;;;5.00;;
9328;SDS011;4703;48.748;19.142;2023-10-31T02:09:21;7.73;;;5.70;;
9328;SDS011;4703;48.748;19.142;2023-10-31T02:11:50;6.53;;;5.93;;
9328;SDS011;4703;48.748;19.142;2023-10-31T02:14:18;7.40;;;5.70;;
9328;SDS011;4703;48.748;19.142;2023-10-31T02:16:45;5.73;;;5.20;;
9328;SDS011;4703;48.748;19.142;2023-10-31T02:19:12;10.97;;;6.10;;
9328;SDS011;4703;48.748;19.142;2023-10-31T02:21:42;6.03;;;5.53;;
9328;SDS011;4703;48.748;19.142;2023-10-31T02:24:09;6.80;;;5.60;;
9328;SDS011;4703;48.748;19.142;2023-10-31T02:26:36;6.70;;;6.00;;
9328;SDS011;4703;48.748;19.142;2023-10-31T02:29:03;7.53;;;5.67;;
9328;SDS011;4703;48.748;19.142;2023-10-31T02:31:31;7.03;;;5.40;;
9328;SDS011;4703;48.748;19.142;2023-10-31T02:33:58;6.47;;;5.43;;
9328;SDS011;4703;48.748;19.142;2023-10-31T02:36:25;5.10;;;4.70;;
9328;SDS011;4703;48.748;19.142;2023-10-31T02:38:52;7.73;;;5.80;;
9328;SDS011;4703;48.748;19.142;2023-10-31T02:41:19;6.27;;;5.27;;
9328;SDS011;4703;48.748;19.142;2023-10-31T02:43:46;7.17;;;6.43;;
9328;SDS011;4703;48.748;19.142;2023-10-31T02:46:13;7.67;;;5.30;;
9328;SDS011;4703;48.748;19.142;2023-10-31T02:48:42;5.60;;;5.10;;
9328;SDS011;4703;48.748;19.142;2023-10-31T02:51:09;6.77;;;5.20;;
9328;SDS011;4703;48.748;19.142;2023-10-31T02:53:36;8.17;;;5.63;;
9328;SDS011;4703;48.748;19.142;2023-10-31T02:56:03;6.53;;;4.63;;
9328;SDS011;4703;48.748;19.142;2023-10-31T02:58:30;8.30;;;5.40;;
9328;SDS011;4703;48.748;19.142;2023-10-31T03:00:57;6.40;;;4.63;;
9328;SDS011;4703;48.748;19.142;2023-10-31T03:03:24;8.40;;;5.90;;
9328;SDS011;4703;48.748;19.142;2023-10-31T03:05:51;6.77;;;5.63;;
9328;SDS011;4703;48.748;19.142;2023-10-31T03:08:18;6.60;;;5.00;;
9328;SDS011;4703;48.748;19.142;2023-10-31T03:10:47;5.20;;;4.67;;
9328;SDS011;4703;48.748;19.142;2023-10-31T03:13:20;10.67;;;5.67;;
9328;SDS011;4703;48.748;19.142;2023-10-31T03:15:46;6.70;;;5.67;;
9328;SDS011;4703;48.748;19.142;2023-10-31T03:18:14;5.97;;;4.87;;
9328;SDS011;4703;48.748;19.142;2023-10-31T03:20:43;5.60;;;5.10;;
9328;SDS011;4703;48.748;19.142;2023-10-31T03:23:14;5.43;;;4.60;;
9328;SDS011;4703;48.748;19.142;2023-10-31T03:25:41;5.80;;;5.23;;
9328;SDS011;4703;48.748;19.142;2023-10-31T03:28:17;5.97;;;5.27;;
9328;SDS011;4703;48.748;19.142;2023-10-31T03:30:49;6.23;;;4.90;;
9328;SDS011;4703;48.748;19.142;2023-10-31T03:33:17;5.93;;;4.80;;
9328;SDS011;4703;48.748;19.142;2023-10-31T03:35:44;5.83;;;5.23;;
9328;SDS011;4703;48.748;19.142;2023-10-31T03:38:12;10.53;;;5.70;;
9328;SDS011;4703;48.748;19.142;2023-10-31T03:40:39;6.70;;;4.23;;
9328;SDS011;4703;48.748;19.142;2023-10-31T03:43:06;5.00;;;4.60;;
9328;SDS011;4703;48.748;19.142;2023-10-31T03:45:33;5.00;;;4.60;;
9328;SDS011;4703;48.748;19.142;2023-10-31T03:48:00;5.77;;;4.53;;
9328;SDS011;4703;48.748;19.142;2023-10-31T03:50:27;5.63;;;5.10;;
9328;SDS011;4703;48.748;19.142;2023-10-31T03:52:54;6.67;;;5.20;;
9328;SDS011;4703;48.748;19.142;2023-10-31T03:55:21;6.07;;;5.47;;
9328;SDS011;4703;48.748;19.142;2023-10-31T03:57:48;6.60;;;5.50;;
9328;SDS011;4703;48.748;19.142;2023-10-31T04:00:15;4.73;;;4.33;;
9328;SDS011;4703;48.748;19.142;2023-10-31T04:02:43;5.33;;;4.43;;
9328;SDS011;4703;48.748;19.142;2023-10-31T04:05:10;5.57;;;5.07;;
9328;SDS011;4703;48.748;19.142;2023-10-31T04:07:37;5.97;;;4.87;;
9328;SDS011;4703;48.748;19.142;2023-10-31T04:10:04;5.43;;;4.60;;
9328;SDS011;4703;48.748;19.142;2023-10-31T04:12:32;5.67;;;5.17;;
9328;SDS011;4703;48.748;19.142;2023-10-31T04:15:00;8.93;;;5.50;;
9328;SDS011;4703;48.748;19.142;2023-10-31T04:17:27;5.30;;;4.60;;
9328;SDS011;4703;48.748;19.142;2023-10-31T04:19:54;5.23;;;4.73;;
9328;SDS011;4703;48.748;19.142;2023-10-31T04:22:21;7.20;;;6.30;;
9328;SDS011;4703;48.748;19.142;2023-10-31T04:24:48;5.27;;;4.77;;
9328;SDS011;4703;48.748;19.142;2023-10-31T04:27:15;6.40;;;5.30;;
9328;SDS011;4703;48.748;19.142;2023-10-31T04:29:42;5.30;;;4.80;;
9328;SDS011;4703;48.748;19.142;2023-10-31T04:32:10;6.23;;;5.00;;
9328;SDS011;4703;48.748;19.142;2023-10-31T04:34:38;6.20;;;5.60;;
9328;SDS011;4703;48.748;19.142;2023-10-31T04:37:05;7.43;;;5.40;;
9328;SDS011;4703;48.748;19.142;2023-10-31T04:39:32;5.20;;;4.80;;
9328;SDS011;4703;48.748;19.142;2023-10-31T04:41:59;5.90;;;5.30;;
9328;SDS011;4703;48.748;19.142;2023-10-31T04:44:26;6.20;;;5.67;;
9328;SDS011;4703;48.748;19.142;2023-10-31T04:46:53;6.83;;;5.83;;
9328;SDS011;4703;48.748;19.142;2023-10-31T04:49:20;8.17;;;5.30;;
9328;SDS011;4703;48.748;19.142;2023-10-31T04:51:47;7.50;;;5.50;;
9328;SDS011;4703;48.748;19.142;2023-10-31T04:54:14;7.40;;;5.47;;
9328;SDS011;4703;48.748;19.142;2023-10-31T04:56:41;6.73;;;5.50;;
9328;SDS011;4703;48.748;19.142;2023-10-31T04:59:08;7.73;;;4.97;;
9328;SDS011;4703;48.748;19.142;2023-10-31T05:01:35;6.10;;;5.50;;
9328;SDS011;4703;48.748;19.142;2023-10-31T05:04:03;6.43;;;5.80;;
9328;SDS011;4703;48.748;19.142;2023-10-31T05:06:38;7.87;;;5.30;;
9328;SDS011;4703;48.748;19.142;2023-10-31T05:09:05;5.80;;;4.97;;
9328;SDS011;4703;48.748;19.142;2023-10-31T05:11:33;6.17;;;5.57;;
9328;SDS011;4703;48.748;19.142;2023-10-31T05:14:00;6.80;;;4.90;;
9328;SDS011;4703;48.748;19.142;2023-10-31T05:16:27;5.43;;;5.00;;
9328;SDS011;4703;48.748;19.142;2023-10-31T05:18:54;6.00;;;5.50;;
9328;SDS011;4703;48.748;19.142;2023-10-31T05:21:20;8.67;;;5.83;;
9328;SDS011;4703;48.748;19.142;2023-10-31T05:23:50;8.00;;;5.50;;
9328;SDS011;4703;48.748;19.142;2023-10-31T05:26:17;6.00;;;5.40;;
9328;SDS011;4703;48.748;19.142;2023-10-31T05:28:44;5.37;;;4.87;;
9328;SDS011;4703;48.748;19.142;2023-10-31T05:31:10;6.50;;;5.90;;
9328;SDS011;4703;48.748;19.142;2023-10-31T05:33:38;6.30;;;5.70;;
9328;SDS011;4703;48.748;19.142;2023-10-31T05:36:05;8.93;;;5.07;;
9328;SDS011;4703;48.748;19.142;2023-10-31T05:38:33;7.17;;;6.57;;
9328;SDS011;4703;48.748;19.142;2023-10-31T05:41:00;11.13;;;7.30;;
9328;SDS011;4703;48.748;19.142;2023-10-31T05:43:27;16.70;;;13.60;;
9328;SDS011;4703;48.748;19.142;2023-10-31T05:45:54;12.10;;;10.90;;
9328;SDS011;4703;48.748;19.142;2023-10-31T05:48:21;24.47;;;20.40;;
9328;SDS011;4703;48.748;19.142;2023-10-31T05:50:48;36.60;;;25.70;;
9328;SDS011;4703;48.748;19.142;2023-10-31T05:53:15;40.80;;;32.17;;
9328;SDS011;4703;48.748;19.142;2023-10-31T05:55:42;12.73;;;10.70;;
9328;SDS011;4703;48.748;19.142;2023-10-31T05:58:09;10.13;;;7.67;;
9328;SDS011;4703;48.748;19.142;2023-10-31T06:00:37;10.40;;;7.40;;
9328;SDS011;4703;48.748;19.142;2023-10-31T06:03:04;10.23;;;7.90;;
9328;SDS011;4703;48.748;19.142;2023-10-31T06:05:31;8.47;;;6.57;;
9328;SDS011;4703;48.748;19.142;2023-10-31T06:07:58;7.80;;;5.90;;
9328;SDS011;4703;48.748;19.142;2023-10-31T06:10:25;9.50;;;6.73;;
9328;SDS011;4703;48.748;19.142;2023-10-31T06:12:52;9.20;;;6.60;;
9328;SDS011;4703;48.748;19.142;2023-10-31T06:15:19;7.60;;;6.50;;
9328;SDS011;4703;48.748;19.142;2023-10-31T06:17:47;7.80;;;7.10;;
9328;SDS011;4703;48.748;19.142;2023-10-31T06:20:13;8.23;;;7.07;;
9328;SDS011;4703;48.748;19.142;2023-10-31T06:22:40;7.17;;;6.47;;
9328;SDS011;4703;48.748;19.142;2023-10-31T06:25:07;6.80;;;6.20;;
9328;SDS011;4703;48.748;19.142;2023-10-31T06:27:34;7.90;;;6.57;;
9328;SDS011;4703;48.748;19.142;2023-10-31T06:30:01;8.50;;;6.17;;
9328;SDS011;4703;48.748;19.142;2023-10-31T06:32:46;8.07;;;7.03;;
9328;SDS011;4703;48.748;19.142;2023-10-31T06:35:13;8.13;;;6.80;;
9328;SDS011;4703;48.748;19.142;2023-10-31T06:37:40;41.23;;;31.37;;
9328;SDS011;4703;48.748;19.142;2023-10-31T06:40:07;19.07;;;14.50;;
9328;SDS011;4703;48.748;19.142;2023-10-31T06:42:35;10.47;;;9.13;;
9328;SDS011;4703;48.748;19.142;2023-10-31T06:45:03;9.07;;;7.20;;
9328;SDS011;4703;48.748;19.142;2023-10-31T06:47:31;9.47;;;7.63;;
9328;SDS011;4703;48.748;19.142;2023-10-31T06:49:58;8.50;;;7.63;;
9328;SDS011;4703;48.748;19.142;2023-10-31T06:52:25;9.40;;;8.00;;
9328;SDS011;4703;48.748;19.142;2023-10-31T06:54:52;7.47;;;6.70;;
9328;SDS011;4703;48.748;19.142;2023-10-31T06:57:19;7.47;;;6.70;;
9328;SDS011;4703;48.748;19.142;2023-10-31T06:59:45;8.70;;;7.47;;
9328;SDS011;4703;48.748;19.142;2023-10-31T07:02:13;10.23;;;7.27;;
9328;SDS011;4703;48.748;19.142;2023-10-31T07:04:40;8.80;;;7.00;;
9328;SDS011;4703;48.748;19.142;2023-10-31T07:07:07;8.23;;;7.43;;
9328;SDS011;4703;48.748;19.142;2023-10-31T07:09:34;13.00;;;8.10;;
9328;SDS011;4703;48.748;19.142;2023-10-31T07:12:01;7.97;;;7.27;;
9328;SDS011;4703;48.748;19.142;2023-10-31T07:14:28;11.07;;;7.77;;
9328;SDS011;4703;48.748;19.142;2023-10-31T07:16:56;8.67;;;7.83;;
9328;SDS011;4703;48.748;19.142;2023-10-31T07:19:23;8.77;;;7.97;;
9328;SDS011;4703;48.748;19.142;2023-10-31T07:21:50;9.50;;;7.33;;
9328;SDS011;4703;48.748;19.142;2023-10-31T07:24:17;11.27;;;9.00;;
9328;SDS011;4703;48.748;19.142;2023-10-31T07:26:44;13.90;;;10.60;;
9328;SDS011;4703;48.748;19.142;2023-10-31T07:29:11;10.90;;;9.60;;
9328;SDS011;4703;48.748;19.142;2023-10-31T07:31:38;12.97;;;11.53;;
9328;SDS011;4703;48.748;19.142;2023-10-31T07:34:06;12.37;;;11.13;;
9328;SDS011;4703;48.748;19.142;2023-10-31T07:36:33;16.37;;;12.20;;
9328;SDS011;4703;48.748;19.142;2023-10-31T07:39:03;21.37;;;15.60;;
9328;SDS011;4703;48.748;19.142;2023-10-31T07:41:30;45.80;;;35.07;;
9328;SDS011;4703;48.748;19.142;2023-10-31T07:43:57;22.50;;;17.57;;
9328;SDS011;4703;48.748;19.142;2023-10-31T07:46:24;14.50;;;12.70;;
9328;SDS011;4703;48.748;19.142;2023-10-31T07:48:51;14.47;;;11.20;;
9328;SDS011;4703;48.748;19.142;2023-10-31T07:51:18;12.63;;;10.70;;
9328;SDS011;4703;48.748;19.142;2023-10-31T07:53:45;12.60;;;10.80;;
9328;SDS011;4703;48.748;19.142;2023-10-31T07:56:18;11.60;;;10.30;;
9328;SDS011;4703;48.748;19.142;2023-10-31T07:58:49;12.57;;;10.70;;
9328;SDS011;4703;48.748;19.142;2023-10-31T08:01:17;10.77;;;9.63;;
9328;SDS011;4703;48.748;19.142;2023-10-31T08:03:47;11.30;;;10.10;;
9328;SDS011;4703;48.748;19.142;2023-10-31T08:06:14;26.13;;;23.43;;
9328;SDS011;4703;48.748;19.142;2023-10-31T08:08:41;38.63;;;29.63;;
9328;SDS011;4703;48.748;19.142;2023-10-31T08:11:09;28.23;;;22.63;;
9328;SDS011;4703;48.748;19.142;2023-10-31T08:13:40;18.13;;;15.37;;
9328;SDS011;4703;48.748;19.142;2023-10-31T08:16:07;20.77;;;17.70;;
9328;SDS011;4703;48.748;19.142;2023-10-31T08:18:34;32.07;;;26.40;;
9328;SDS011;4703;48.748;19.142;2023-10-31T08:21:02;17.77;;;16.00;;
9328;SDS011;4703;48.748;19.142;2023-10-31T08:23:30;13.50;;;10.60;;
9328;SDS011;4703;48.748;19.142;2023-10-31T08:25:57;13.30;;;11.10;;
9328;SDS011;4703;48.748;19.142;2023-10-31T08:28:24;15.93;;;12.57;;
9328;SDS011;4703;48.748;19.142;2023-10-31T08:30:51;12.67;;;11.33;;
9328;SDS011;4703;48.748;19.142;2023-10-31T08:33:18;13.70;;;11.13;;
9328;SDS011;4703;48.748;19.142;2023-10-31T08:35:45;10.70;;;9.67;;
9328;SDS011;4703;48.748;19.142;2023-10-31T08:38:13;13.27;;;10.87;;
9328;SDS011;4703;48.748;19.142;2023-10-31T08:40:54;14.00;;;10.20;;
9328;SDS011;4703;48.748;19.142;2023-10-31T08:43:22;11.90;;;10.67;;
9328;SDS011;4703;48.748;19.142;2023-10-31T08:45:49;13.17;;;10.80;;
9328;SDS011;4703;48.748;19.142;2023-10-31T08:48:16;11.80;;;10.60;;
9328;SDS011;4703;48.748;19.142;2023-10-31T08:50:43;11.60;;;10.47;;
9328;SDS011;4703;48.748;19.142;2023-10-31T08:53:10;10.90;;;9.80;;
9328;SDS011;4703;48.748;19.142;2023-10-31T08:55:38;11.50;;;10.40;;
9328;SDS011;4703;48.748;19.142;2023-10-31T08:58:05;11.83;;;9.80;;
9328;SDS011;4703;48.748;19.142;2023-10-31T09:00:32;13.83;;;10.60;;
9328;SDS011;4703;48.748;19.142;2023-10-31T09:02:59;11.50;;;10.07;;
9328;SDS011;4703;48.748;19.142;2023-10-31T09:05:26;11.00;;;9.90;;
9328;SDS011;4703;48.748;19.142;2023-10-31T09:07:53;13.13;;;11.93;;
9328;SDS011;4703;48.748;19.142;2023-10-31T09:10:23;11.23;;;10.20;;
9328;SDS011;4703;48.748;19.142;2023-10-31T09:12:50;11.77;;;10.60;;
9328;SDS011;4703;48.748;19.142;2023-10-31T09:15:18;11.90;;;10.40;;
9328;SDS011;4703;48.748;19.142;2023-10-31T09:17:45;12.13;;;11.03;;
9328;SDS011;4703;48.748;19.142;2023-10-31T09:20:16;11.30;;;10.20;;
9328;SDS011;4703;48.748;19.142;2023-10-31T09:22:43;12.50;;;11.20;;
9328;SDS011;4703;48.748;19.142;2023-10-31T09:25:09;13.47;;;11.13;;
9328;SDS011;4703;48.748;19.142;2023-10-31T09:27:39;10.90;;;9.67;;
9328;SDS011;4703;48.748;19.142;2023-10-31T09:30:07;11.57;;;10.37;;
9328;SDS011;4703;48.748;19.142;2023-10-31T09:32:35;11.17;;;10.10;;
9328;SDS011;4703;48.748;19.142;2023-10-31T09:35:02;10.33;;;9.30;;
9328;SDS011;4703;48.748;19.142;2023-10-31T09:37:30;27.20;;;21.20;;
9328;SDS011;4703;48.748;19.142;2023-10-31T09:40:00;35.20;;;25.60;;
9328;SDS011;4703;48.748;19.142;2023-10-31T09:42:27;16.90;;;15.10;;
9328;SDS011;4703;48.748;19.142;2023-10-31T09:44:54;10.57;;;9.57;;
9328;SDS011;4703;48.748;19.142;2023-10-31T09:47:21;10.10;;;9.10;;
9328;SDS011;4703;48.748;19.142;2023-10-31T09:49:49;9.80;;;8.90;;
9328;SDS011;4703;48.748;19.142;2023-10-31T09:52:16;10.00;;;9.07;;
9328;SDS011;4703;48.748;19.142;2023-10-31T09:54:47;10.97;;;9.07;;
9328;SDS011;4703;48.748;19.142;2023-10-31T09:57:16;10.80;;;9.70;;
9328;SDS011;4703;48.748;19.142;2023-10-31T09:59:44;12.43;;;11.10;;
9328;SDS011;4703;48.748;19.142;2023-10-31T10:02:11;11.00;;;9.57;;
9328;SDS011;4703;48.748;19.142;2023-10-31T10:04:38;10.20;;;9.23;;
9328;SDS011;4703;48.748;19.142;2023-10-31T10:07:07;10.63;;;9.40;;
9328;SDS011;4703;48.748;19.142;2023-10-31T10:09:34;10.30;;;9.30;;
9328;SDS011;4703;48.748;19.142;2023-10-31T10:12:01;10.23;;;9.20;;
9328;SDS011;4703;48.748;19.142;2023-10-31T10:14:29;9.90;;;9.10;;
9328;SDS011;4703;48.748;19.142;2023-10-31T10:16:58;11.20;;;9.03;;
9328;SDS011;4703;48.748;19.142;2023-10-31T10:19:26;9.87;;;8.90;;
9328;SDS011;4703;48.748;19.142;2023-10-31T10:21:57;10.23;;;9.20;;
9328;SDS011;4703;48.748;19.142;2023-10-31T10:24:25;11.63;;;10.53;;
9328;SDS011;4703;48.748;19.142;2023-10-31T10:26:52;9.83;;;9.03;;
9328;SDS011;4703;48.748;19.142;2023-10-31T10:29:19;12.00;;;9.67;;
9328;SDS011;4703;48.748;19.142;2023-10-31T10:31:46;12.03;;;10.93;;
9328;SDS011;4703;48.748;19.142;2023-10-31T10:34:14;13.20;;;11.90;;
9328;SDS011;4703;48.748;19.142;2023-10-31T10:36:46;10.23;;;9.30;;
9328;SDS011;4703;48.748;19.142;2023-10-31T10:39:19;26.70;;;22.53;;
9328;SDS011;4703;48.748;19.142;2023-10-31T10:41:55;82.90;;;57.63;;
9328;SDS011;4703;48.748;19.142;2023-10-31T10:44:34;49.23;;;38.20;;
9328;SDS011;4703;48.748;19.142;2023-10-31T10:47:03;16.10;;;12.73;;
9328;SDS011;4703;48.748;19.142;2023-10-31T10:49:33;12.77;;;10.60;;
9328;SDS011;4703;48.748;19.142;2023-10-31T10:55:15;13.03;;;9.73;;
9328;SDS011;4703;48.748;19.142;2023-10-31T11:00:56;12.33;;;11.10;;
9328;SDS011;4703;48.748;19.142;2023-10-31T11:03:25;10.33;;;9.43;;
9328;SDS011;4703;48.748;19.142;2023-10-31T11:05:54;11.90;;;10.70;;
9328;SDS011;4703;48.748;19.142;2023-10-31T11:08:22;11.43;;;10.27;;
9328;SDS011;4703;48.748;19.142;2023-10-31T11:10:52;10.37;;;9.27;;
9328;SDS011;4703;48.748;19.142;2023-10-31T11:13:20;16.33;;;10.63;;
9328;SDS011;4703;48.748;19.142;2023-10-31T11:15:49;10.77;;;9.67;;
9328;SDS011;4703;48.748;19.142;2023-10-31T11:18:22;11.53;;;10.33;;
9328;SDS011;4703;48.748;19.142;2023-10-31T11:20:50;10.90;;;9.90;;
9328;SDS011;4703;48.748;19.142;2023-10-31T11:23:17;16.23;;;10.43;;
9328;SDS011;4703;48.748;19.142;2023-10-31T11:25:44;11.30;;;10.10;;
9328;SDS011;4703;48.748;19.142;2023-10-31T11:28:16;11.90;;;10.43;;
9328;SDS011;4703;48.748;19.142;2023-10-31T11:30:45;12.03;;;10.83;;
9328;SDS011;4703;48.748;19.142;2023-10-31T11:33:16;10.83;;;9.73;;
9328;SDS011;4703;48.748;19.142;2023-10-31T11:35:50;11.00;;;9.90;;
9328;SDS011;4703;48.748;19.142;2023-10-31T11:38:17;17.10;;;11.50;;
9328;SDS011;4703;48.748;19.142;2023-10-31T11:41:02;11.17;;;10.13;;
9328;SDS011;4703;48.748;19.142;2023-10-31T11:46:28;10.60;;;9.63;;
9328;SDS011;4703;48.748;19.142;2023-10-31T11:48:55;11.27;;;9.70;;
9328;SDS011;4703;48.748;19.142;2023-10-31T11:51:24;12.37;;;9.90;;
9328;SDS011;4703;48.748;19.142;2023-10-31T11:53:51;11.70;;;10.10;;
9328;SDS011;4703;48.748;19.142;2023-10-31T11:56:19;12.70;;;10.10;;
9328;SDS011;4703;48.748;19.142;2023-10-31T11:58:54;12.00;;;10.63;;
9328;SDS011;4703;48.748;19.142;2023-10-31T12:01:25;10.87;;;9.90;;
9328;SDS011;4703;48.748;19.142;2023-10-31T12:03:52;11.00;;;9.90;;
9328;SDS011;4703;48.748;19.142;2023-10-31T12:06:19;11.10;;;10.00;;
9328;SDS011;4703;48.748;19.142;2023-10-31T12:08:48;11.33;;;9.80;;
9328;SDS011;4703;48.748;19.142;2023-10-31T12:11:16;11.67;;;9.93;;
9328;SDS011;4703;48.748;19.142;2023-10-31T12:13:53;11.17;;;10.07;;
9328;SDS011;4703;48.748;19.142;2023-10-31T12:16:33;11.47;;;9.70;;
9328;SDS011;4703;48.748;19.142;2023-10-31T12:19:01;12.23;;;10.47;;
9328;SDS011;4703;48.748;19.142;2023-10-31T12:21:44;11.03;;;9.87;;
9328;SDS011;4703;48.748;19.142;2023-10-31T12:24:17;10.97;;;9.97;;
9328;SDS011;4703;48.748;19.142;2023-10-31T12:26:45;11.60;;;10.40;;
9328;SDS011;4703;48.748;19.142;2023-10-31T12:29:16;12.30;;;10.60;;
9328;SDS011;4703;48.748;19.142;2023-10-31T12:31:49;12.73;;;11.30;;
9328;SDS011;4703;48.748;19.142;2023-10-31T12:34:20;27.10;;;20.67;;
9328;SDS011;4703;48.748;19.142;2023-10-31T12:36:51;59.23;;;45.13;;
9328;SDS011;4703;48.748;19.142;2023-10-31T12:39:24;39.07;;;31.30;;
9328;SDS011;4703;48.748;19.142;2023-10-31T12:41:53;18.60;;;16.67;;
9328;SDS011;4703;48.748;19.142;2023-10-31T12:44:23;14.10;;;12.70;;
9328;SDS011;4703;48.748;19.142;2023-10-31T12:46:53;13.27;;;11.87;;
9328;SDS011;4703;48.748;19.142;2023-10-31T12:49:21;11.93;;;10.70;;
9328;SDS011;4703;48.748;19.142;2023-10-31T12:52:01;10.97;;;9.77;;
9328;SDS011;4703;48.748;19.142;2023-10-31T12:54:31;11.90;;;10.67;;
9328;SDS011;4703;48.748;19.142;2023-10-31T12:57:03;13.10;;;10.50;;
9328;SDS011;4703;48.748;19.142;2023-10-31T12:59:34;12.83;;;10.73;;
9328;SDS011;4703;48.748;19.142;2023-10-31T13:02:06;12.03;;;9.97;;
9328;SDS011;4703;48.748;19.142;2023-10-31T13:04:34;15.00;;;11.63;;
9328;SDS011;4703;48.748;19.142;2023-10-31T13:07:03;11.03;;;9.20;;
9328;SDS011;4703;48.748;19.142;2023-10-31T13:09:32;6.90;;;6.30;;
9328;SDS011;4703;48.748;19.142;2023-10-31T13:12:03;6.63;;;6.03;;
9328;SDS011;4703;48.748;19.142;2023-10-31T13:14:32;7.20;;;6.50;;
9328;SDS011;4703;48.748;19.142;2023-10-31T13:17:00;6.67;;;5.97;;
9328;SDS011;4703;48.748;19.142;2023-10-31T13:19:29;6.73;;;5.93;;
9328;SDS011;4703;48.748;19.142;2023-10-31T13:21:56;7.20;;;6.50;;
9328;SDS011;4703;48.748;19.142;2023-10-31T13:24:23;10.87;;;7.50;;
9328;SDS011;4703;48.748;19.142;2023-10-31T13:26:50;9.97;;;8.93;;
9328;SDS011;4703;48.748;19.142;2023-10-31T13:29:19;9.47;;;8.57;;
9328;SDS011;4703;48.748;19.142;2023-10-31T13:31:47;10.77;;;8.70;;
9328;SDS011;4703;48.748;19.142;2023-10-31T13:34:14;9.13;;;7.50;;
9328;SDS011;4703;48.748;19.142;2023-10-31T13:36:41;10.33;;;7.23;;
9328;SDS011;4703;48.748;19.142;2023-10-31T13:39:09;7.80;;;7.10;;
9328;SDS011;4703;48.748;19.142;2023-10-31T13:41:36;8.80;;;8.00;;
9328;SDS011;4703;48.748;19.142;2023-10-31T13:44:03;8.23;;;7.43;;
9328;SDS011;4703;48.748;19.142;2023-10-31T13:46:31;8.87;;;8.07;;
9328;SDS011;4703;48.748;19.142;2023-10-31T13:48:58;10.80;;;7.83;;
9328;SDS011;4703;48.748;19.142;2023-10-31T13:51:25;7.07;;;6.37;;
9328;SDS011;4703;48.748;19.142;2023-10-31T13:53:52;9.10;;;7.40;;
9328;SDS011;4703;48.748;19.142;2023-10-31T13:56:19;8.87;;;7.97;;
9328;SDS011;4703;48.748;19.142;2023-10-31T13:58:46;9.47;;;8.43;;
9328;SDS011;4703;48.748;19.142;2023-10-31T14:01:14;9.47;;;8.57;;
9328;SDS011;4703;48.748;19.142;2023-10-31T14:03:41;8.90;;;7.97;;
9328;SDS011;4703;48.748;19.142;2023-10-31T14:06:11;8.73;;;7.83;;
9328;SDS011;4703;48.748;19.142;2023-10-31T14:08:39;9.37;;;8.47;;
9328;SDS011;4703;48.748;19.142;2023-10-31T14:11:06;9.30;;;8.40;;
9328;SDS011;4703;48.748;19.142;2023-10-31T14:13:37;10.60;;;8.47;;
9328;SDS011;4703;48.748;19.142;2023-10-31T14:16:05;9.97;;;8.97;;
9328;SDS011;4703;48.748;19.142;2023-10-31T14:18:32;14.17;;;9.00;;
9328;SDS011;4703;48.748;19.142;2023-10-31T14:21:00;9.80;;;8.90;;
9328;SDS011;4703;48.748;19.142;2023-10-31T14:23:27;11.37;;;10.30;;
9328;SDS011;4703;48.748;19.142;2023-10-31T14:25:54;11.47;;;10.27;;
9328;SDS011;4703;48.748;19.142;2023-10-31T14:28:21;10.83;;;9.40;;
9328;SDS011;4703;48.748;19.142;2023-10-31T14:30:48;10.53;;;9.00;;
9328;SDS011;4703;48.748;19.142;2023-10-31T14:33:15;9.03;;;8.13;;
9328;SDS011;4703;48.748;19.142;2023-10-31T14:35:42;9.97;;;7.37;;
9328;SDS011;4703;48.748;19.142;2023-10-31T14:38:09;6.93;;;6.23;;
9328;SDS011;4703;48.748;19.142;2023-10-31T14:40:36;6.83;;;6.20;;
9328;SDS011;4703;48.748;19.142;2023-10-31T14:43:03;6.53;;;5.93;;
9328;SDS011;4703;48.748;19.142;2023-10-31T14:45:30;6.07;;;5.57;;
9328;SDS011;4703;48.748;19.142;2023-10-31T14:47:57;7.27;;;6.63;;
9328;SDS011;4703;48.748;19.142;2023-10-31T14:50:24;7.13;;;6.40;;
9328;SDS011;4703;48.748;19.142;2023-10-31T14:52:51;6.33;;;5.90;;
9328;SDS011;4703;48.748;19.142;2023-10-31T14:55:18;5.40;;;4.90;;
9328;SDS011;4703;48.748;19.142;2023-10-31T14:57:45;7.33;;;6.00;;
9328;SDS011;4703;48.748;19.142;2023-10-31T15:00:12;7.97;;;6.70;;
9328;SDS011;4703;48.748;19.142;2023-10-31T15:02:40;8.40;;;7.67;;
9328;SDS011;4703;48.748;19.142;2023-10-31T15:05:07;8.00;;;6.27;;